sensor_id;sensor_type;location;lat;lon;timestamp;P1;durP1;ratioP1;P2;durP2;ratioP2
16512;SDS011;8369;48.030;11.598;2022-07-10T00:01:17;2.65;;;2.25;;
16512;SDS011;8369;48.030;11.598;2022-07-10T00:03:43;2.75;;;2.33;;
16512;SDS011;8369;48.030;11.598;2022-07-10T00:06:11;2.95;;;2.50;;
16512;SDS011;8369;48.030;11.598;2022-07-10T00:08:37;3.35;;;2.40;;
16512;SDS011;8369;48.030;11.598;2022-07-10T00:11:04;2.55;;;2.15;;
16512;SDS011;8369;48.030;11.598;2022-07-10T00:13:29;2.58;;;2.35;;
16512;SDS011;8369;48.030;11.598;2022-07-10T00:15:56;4.82;;;2.35;;
16512;SDS011;8369;48.030;11.598;2022-07-10T00:18:22;2.65;;;2.10;;
16512;SDS011;8369;48.030;11.598;2022-07-10T00:20:48;5.70;;;2.67;;
16512;SDS011;8369;48.030;11.598;2022-07-10T00:23:13;3.42;;;2.63;;
16512;SDS011;8369;48.030;11.598;2022-07-10T00:25:39;2.17;;;2.00;;
16512;SDS011;8369;48.030;11.598;2022-07-10T00:28:05;3.90;;;2.65;;
16512;SDS011;8369;48.030;11.598;2022-07-10T00:30:31;3.72;;;2.40;;
16512;SDS011;8369;48.030;11.598;2022-07-10T00:32:57;2.47;;;2.28;;
16512;SDS011;8369;48.030;11.598;2022-07-10T00:35:24;2.70;;;2.25;;
16512;SDS011;8369;48.030;11.598;2022-07-10T00:37:50;2.53;;;2.28;;
16512;SDS011;8369;48.030;11.598;2022-07-10T00:40:16;3.15;;;2.63;;
16512;SDS011;8369;48.030;11.598;2022-07-10T00:42:42;2.65;;;2.45;;
16512;SDS011;8369;48.030;11.598;2022-07-10T00:45:08;4.28;;;2.70;;
16512;SDS011;8369;48.030;11.598;2022-07-10T00:47:35;2.58;;;2.38;;
16512;SDS011;8369;48.030;11.598;2022-07-10T00:50:01;3.42;;;2.70;;
16512;SDS011;8369;48.030;11.598;2022-07-10T00:52:28;2.85;;;2.50;;
16512;SDS011;8369;48.030;11.598;2022-07-10T00:54:55;3.78;;;3.00;;
16512;SDS011;8369;48.030;11.598;2022-07-10T00:57:22;4.95;;;3.40;;
16512;SDS011;8369;48.030;11.598;2022-07-10T00:59:49;3.55;;;3.25;;
16512;SDS011;8369;48.030;11.598;2022-07-10T01:02:15;3.83;;;3.45;;
16512;SDS011;8369;48.030;11.598;2022-07-10T01:04:42;6.47;;;3.72;;
16512;SDS011;8369;48.030;11.598;2022-07-10T01:10:49;4.15;;;3.55;;
16512;SDS011;8369;48.030;11.598;2022-07-10T01:13:16;3.75;;;3.45;;
16512;SDS011;8369;48.030;11.598;2022-07-10T01:15:44;6.13;;;4.10;;
16512;SDS011;8369;48.030;11.598;2022-07-10T01:18:10;5.65;;;4.15;;
16512;SDS011;8369;48.030;11.598;2022-07-10T01:20:38;5.00;;;3.93;;
16512;SDS011;8369;48.030;11.598;2022-07-10T01:23:05;4.33;;;3.93;;
16512;SDS011;8369;48.030;11.598;2022-07-10T01:25:31;5.47;;;4.20;;
16512;SDS011;8369;48.030;11.598;2022-07-10T01:27:57;4.28;;;3.80;;
16512;SDS011;8369;48.030;11.598;2022-07-10T01:30:24;4.60;;;3.78;;
16512;SDS011;8369;48.030;11.598;2022-07-10T01:32:51;4.28;;;3.80;;
16512;SDS011;8369;48.030;11.598;2022-07-10T01:35:17;6.15;;;4.40;;
16512;SDS011;8369;48.030;11.598;2022-07-10T01:37:44;4.63;;;4.20;;
16512;SDS011;8369;48.030;11.598;2022-07-10T01:40:10;5.25;;;4.13;;
16512;SDS011;8369;48.030;11.598;2022-07-10T01:42:37;4.22;;;3.80;;
16512;SDS011;8369;48.030;11.598;2022-07-10T01:45:07;4.57;;;4.00;;
16512;SDS011;8369;48.030;11.598;2022-07-10T01:47:34;4.18;;;3.78;;
16512;SDS011;8369;48.030;11.598;2022-07-10T01:50:04;5.88;;;3.80;;
16512;SDS011;8369;48.030;11.598;2022-07-10T01:52:31;4.03;;;3.63;;
16512;SDS011;8369;48.030;11.598;2022-07-10T01:54:57;4.72;;;3.63;;
16512;SDS011;8369;48.030;11.598;2022-07-10T01:57:23;4.97;;;4.00;;
16512;SDS011;8369;48.030;11.598;2022-07-10T01:59:50;4.45;;;3.90;;
16512;SDS011;8369;48.030;11.598;2022-07-10T02:02:16;3.70;;;3.40;;
16512;SDS011;8369;48.030;11.598;2022-07-10T02:04:42;4.77;;;3.80;;
16512;SDS011;8369;48.030;11.598;2022-07-10T02:09:34;4.50;;;4.10;;
16512;SDS011;8369;48.030;11.598;2022-07-10T02:12:01;7.73;;;3.87;;
16512;SDS011;8369;48.030;11.598;2022-07-10T02:14:27;5.45;;;4.47;;
16512;SDS011;8369;48.030;11.598;2022-07-10T02:16:54;4.30;;;3.90;;
16512;SDS011;8369;48.030;11.598;2022-07-10T02:19:21;4.00;;;3.60;;
16512;SDS011;8369;48.030;11.598;2022-07-10T02:21:47;7.47;;;4.33;;
16512;SDS011;8369;48.030;11.598;2022-07-10T02:24:13;5.20;;;4.00;;
16512;SDS011;8369;48.030;11.598;2022-07-10T02:26:39;6.07;;;4.13;;
16512;SDS011;8369;48.030;11.598;2022-07-10T02:29:05;6.93;;;3.90;;
16512;SDS011;8369;48.030;11.598;2022-07-10T02:31:32;4.60;;;4.20;;
16512;SDS011;8369;48.030;11.598;2022-07-10T02:34:00;4.43;;;3.93;;
16512;SDS011;8369;48.030;11.598;2022-07-10T02:36:27;5.83;;;4.13;;
16512;SDS011;8369;48.030;11.598;2022-07-10T02:38:53;4.67;;;4.27;;
16512;SDS011;8369;48.030;11.598;2022-07-10T02:41:20;5.37;;;4.10;;
16512;SDS011;8369;48.030;11.598;2022-07-10T02:43:47;5.23;;;4.30;;
16512;SDS011;8369;48.030;11.598;2022-07-10T02:46:13;4.67;;;4.17;;
16512;SDS011;8369;48.030;11.598;2022-07-10T02:48:40;4.57;;;4.17;;
16512;SDS011;8369;48.030;11.598;2022-07-10T02:51:06;4.37;;;3.97;;
16512;SDS011;8369;48.030;11.598;2022-07-10T02:53:32;6.50;;;4.50;;
16512;SDS011;8369;48.030;11.598;2022-07-10T02:55:58;5.00;;;4.03;;
16512;SDS011;8369;48.030;11.598;2022-07-10T02:58:24;5.80;;;4.33;;
16512;SDS011;8369;48.030;11.598;2022-07-10T03:00:51;4.70;;;4.10;;
16512;SDS011;8369;48.030;11.598;2022-07-10T03:03:18;5.17;;;4.60;;
16512;SDS011;8369;48.030;11.598;2022-07-10T03:05:44;5.87;;;4.53;;
16512;SDS011;8369;48.030;11.598;2022-07-10T03:08:11;5.20;;;4.23;;
16512;SDS011;8369;48.030;11.598;2022-07-10T03:10:38;5.03;;;4.33;;
16512;SDS011;8369;48.030;11.598;2022-07-10T03:13:04;6.20;;;4.07;;
16512;SDS011;8369;48.030;11.598;2022-07-10T03:15:30;4.70;;;4.20;;
16512;SDS011;8369;48.030;11.598;2022-07-10T03:17:57;4.10;;;3.73;;
16512;SDS011;8369;48.030;11.598;2022-07-10T03:20:24;4.17;;;3.73;;
16512;SDS011;8369;48.030;11.598;2022-07-10T03:22:50;5.77;;;4.13;;
16512;SDS011;8369;48.030;11.598;2022-07-10T03:25:17;3.97;;;3.53;;
16512;SDS011;8369;48.030;11.598;2022-07-10T03:27:43;4.67;;;4.27;;
16512;SDS011;8369;48.030;11.598;2022-07-10T03:30:09;4.13;;;3.73;;
16512;SDS011;8369;48.030;11.598;2022-07-10T03:32:36;5.00;;;4.27;;
16512;SDS011;8369;48.030;11.598;2022-07-10T03:35:02;5.30;;;4.13;;
16512;SDS011;8369;48.030;11.598;2022-07-10T03:37:37;6.60;;;4.40;;
16512;SDS011;8369;48.030;11.598;2022-07-10T03:40:05;4.80;;;3.87;;
16512;SDS011;8369;48.030;11.598;2022-07-10T03:42:32;4.90;;;3.67;;
16512;SDS011;8369;48.030;11.598;2022-07-10T03:44:59;4.27;;;3.87;;
16512;SDS011;8369;48.030;11.598;2022-07-10T03:47:26;3.90;;;3.60;;
16512;SDS011;8369;48.030;11.598;2022-07-10T03:49:52;4.50;;;4.10;;
16512;SDS011;8369;48.030;11.598;2022-07-10T03:52:18;5.23;;;3.90;;
16512;SDS011;8369;48.030;11.598;2022-07-10T03:54:47;4.10;;;3.70;;
16512;SDS011;8369;48.030;11.598;2022-07-10T03:57:13;4.43;;;3.97;;
16512;SDS011;8369;48.030;11.598;2022-07-10T03:59:58;4.80;;;3.97;;
16512;SDS011;8369;48.030;11.598;2022-07-10T04:02:24;4.60;;;4.00;;
16512;SDS011;8369;48.030;11.598;2022-07-10T04:04:50;4.60;;;3.73;;
16512;SDS011;8369;48.030;11.598;2022-07-10T04:07:17;4.17;;;3.77;;
16512;SDS011;8369;48.030;11.598;2022-07-10T04:09:43;4.23;;;3.63;;
16512;SDS011;8369;48.030;11.598;2022-07-10T04:12:10;4.30;;;3.83;;
16512;SDS011;8369;48.030;11.598;2022-07-10T04:14:37;3.80;;;3.40;;
16512;SDS011;8369;48.030;11.598;2022-07-10T04:17:04;4.60;;;4.00;;
16512;SDS011;8369;48.030;11.598;2022-07-10T04:19:31;5.27;;;4.10;;
16512;SDS011;8369;48.030;11.598;2022-07-10T04:21:58;4.97;;;4.07;;
16512;SDS011;8369;48.030;11.598;2022-07-10T04:24:25;4.10;;;3.70;;
16512;SDS011;8369;48.030;11.598;2022-07-10T04:26:52;4.97;;;4.10;;
16512;SDS011;8369;48.030;11.598;2022-07-10T04:29:19;4.53;;;4.10;;
16512;SDS011;8369;48.030;11.598;2022-07-10T04:31:46;7.17;;;4.20;;
16512;SDS011;8369;48.030;11.598;2022-07-10T04:34:13;4.23;;;3.70;;
16512;SDS011;8369;48.030;11.598;2022-07-10T04:36:40;6.07;;;4.07;;
16512;SDS011;8369;48.030;11.598;2022-07-10T04:39:06;4.33;;;3.93;;
16512;SDS011;8369;48.030;11.598;2022-07-10T04:41:33;4.47;;;4.07;;
16512;SDS011;8369;48.030;11.598;2022-07-10T04:44:00;4.77;;;3.80;;
16512;SDS011;8369;48.030;11.598;2022-07-10T04:46:26;4.27;;;3.60;;
16512;SDS011;8369;48.030;11.598;2022-07-10T04:48:53;4.13;;;3.73;;
16512;SDS011;8369;48.030;11.598;2022-07-10T04:51:19;4.27;;;3.87;;
16512;SDS011;8369;48.030;11.598;2022-07-10T04:53:48;5.20;;;4.37;;
16512;SDS011;8369;48.030;11.598;2022-07-10T04:56:15;4.77;;;3.80;;
16512;SDS011;8369;48.030;11.598;2022-07-10T04:58:41;4.43;;;4.07;;
16512;SDS011;8369;48.030;11.598;2022-07-10T05:01:08;7.90;;;4.07;;
16512;SDS011;8369;48.030;11.598;2022-07-10T05:03:34;4.77;;;4.20;;
16512;SDS011;8369;48.030;11.598;2022-07-10T05:06:00;6.70;;;4.13;;
16512;SDS011;8369;48.030;11.598;2022-07-10T05:08:27;4.20;;;3.87;;
16512;SDS011;8369;48.030;11.598;2022-07-10T05:10:53;4.47;;;3.90;;
16512;SDS011;8369;48.030;11.598;2022-07-10T05:13:22;7.10;;;4.30;;
16512;SDS011;8369;48.030;11.598;2022-07-10T05:15:48;4.67;;;3.83;;
16512;SDS011;8369;48.030;11.598;2022-07-10T05:18:15;4.07;;;3.70;;
16512;SDS011;8369;48.030;11.598;2022-07-10T05:20:41;4.17;;;3.77;;
16512;SDS011;8369;48.030;11.598;2022-07-10T05:23:09;4.30;;;3.87;;
16512;SDS011;8369;48.030;11.598;2022-07-10T05:25:36;4.90;;;4.30;;
16512;SDS011;8369;48.030;11.598;2022-07-10T05:28:03;6.03;;;4.50;;
16512;SDS011;8369;48.030;11.598;2022-07-10T05:30:30;5.20;;;4.23;;
16512;SDS011;8369;48.030;11.598;2022-07-10T05:32:56;5.23;;;4.13;;
16512;SDS011;8369;48.030;11.598;2022-07-10T05:35:22;4.60;;;4.03;;
16512;SDS011;8369;48.030;11.598;2022-07-10T05:37:48;5.90;;;4.33;;
16512;SDS011;8369;48.030;11.598;2022-07-10T05:40:14;5.00;;;4.00;;
16512;SDS011;8369;48.030;11.598;2022-07-10T05:42:40;6.73;;;4.30;;
16512;SDS011;8369;48.030;11.598;2022-07-10T05:45:06;5.10;;;4.60;;
16512;SDS011;8369;48.030;11.598;2022-07-10T05:47:32;4.90;;;4.30;;
16512;SDS011;8369;48.030;11.598;2022-07-10T05:49:58;4.67;;;4.20;;
16512;SDS011;8369;48.030;11.598;2022-07-10T05:52:24;4.90;;;4.40;;
16512;SDS011;8369;48.030;11.598;2022-07-10T05:54:50;4.87;;;4.37;;
16512;SDS011;8369;48.030;11.598;2022-07-10T05:57:16;5.07;;;4.10;;
16512;SDS011;8369;48.030;11.598;2022-07-10T05:59:43;4.90;;;4.40;;
16512;SDS011;8369;48.030;11.598;2022-07-10T06:02:09;6.67;;;4.40;;
16512;SDS011;8369;48.030;11.598;2022-07-10T06:04:36;5.33;;;4.73;;
16512;SDS011;8369;48.030;11.598;2022-07-10T06:07:02;5.47;;;4.60;;
16512;SDS011;8369;48.030;11.598;2022-07-10T06:09:29;6.07;;;4.90;;
16512;SDS011;8369;48.030;11.598;2022-07-10T06:11:55;5.70;;;4.57;;
16512;SDS011;8369;48.030;11.598;2022-07-10T06:14:21;10.67;;;4.53;;
16512;SDS011;8369;48.030;11.598;2022-07-10T06:16:47;5.77;;;5.00;;
16512;SDS011;8369;48.030;11.598;2022-07-10T06:19:14;5.83;;;4.80;;
16512;SDS011;8369;48.030;11.598;2022-07-10T06:21:42;6.47;;;5.17;;
16512;SDS011;8369;48.030;11.598;2022-07-10T06:24:08;5.67;;;4.90;;
16512;SDS011;8369;48.030;11.598;2022-07-10T06:26:34;6.30;;;5.00;;
16512;SDS011;8369;48.030;11.598;2022-07-10T06:29:00;7.17;;;5.33;;
16512;SDS011;8369;48.030;11.598;2022-07-10T06:31:26;6.10;;;5.37;;
16512;SDS011;8369;48.030;11.598;2022-07-10T06:33:52;6.10;;;5.00;;
16512;SDS011;8369;48.030;11.598;2022-07-10T06:36:18;6.23;;;4.83;;
16512;SDS011;8369;48.030;11.598;2022-07-10T06:38:44;7.87;;;5.00;;
16512;SDS011;8369;48.030;11.598;2022-07-10T06:41:09;6.27;;;5.03;;
16512;SDS011;8369;48.030;11.598;2022-07-10T06:43:35;5.43;;;4.73;;
16512;SDS011;8369;48.030;11.598;2022-07-10T06:46:01;7.17;;;5.03;;
16512;SDS011;8369;48.030;11.598;2022-07-10T06:48:28;5.40;;;4.90;;
16512;SDS011;8369;48.030;11.598;2022-07-10T06:50:54;5.97;;;4.65;;
16512;SDS011;8369;48.030;11.598;2022-07-10T06:53:20;6.27;;;5.17;;
16512;SDS011;8369;48.030;11.598;2022-07-10T06:55:51;7.47;;;5.40;;
16512;SDS011;8369;48.030;11.598;2022-07-10T06:58:16;5.80;;;5.20;;
16512;SDS011;8369;48.030;11.598;2022-07-10T07:00:43;5.53;;;5.00;;
16512;SDS011;8369;48.030;11.598;2022-07-10T07:03:09;4.97;;;4.57;;
16512;SDS011;8369;48.030;11.598;2022-07-10T07:05:34;5.93;;;4.67;;
16512;SDS011;8369;48.030;11.598;2022-07-10T07:08:00;5.50;;;4.90;;
16512;SDS011;8369;48.030;11.598;2022-07-10T07:10:26;5.03;;;4.53;;
16512;SDS011;8369;48.030;11.598;2022-07-10T07:12:52;5.10;;;4.60;;
16512;SDS011;8369;48.030;11.598;2022-07-10T07:15:18;6.87;;;5.00;;
16512;SDS011;8369;48.030;11.598;2022-07-10T07:17:46;5.37;;;4.83;;
16512;SDS011;8369;48.030;11.598;2022-07-10T07:20:25;5.40;;;4.90;;
16512;SDS011;8369;48.030;11.598;2022-07-10T07:23:10;6.00;;;4.90;;
16512;SDS011;8369;48.030;11.598;2022-07-10T07:25:36;6.73;;;5.10;;
16512;SDS011;8369;48.030;11.598;2022-07-10T07:28:09;6.90;;;4.97;;
16512;SDS011;8369;48.030;11.598;2022-07-10T07:30:38;6.40;;;5.00;;
16512;SDS011;8369;48.030;11.598;2022-07-10T07:33:04;5.77;;;5.17;;
16512;SDS011;8369;48.030;11.598;2022-07-10T07:35:30;5.90;;;5.33;;
16512;SDS011;8369;48.030;11.598;2022-07-10T07:37:56;6.73;;;5.00;;
16512;SDS011;8369;48.030;11.598;2022-07-10T07:40:22;5.30;;;4.80;;
16512;SDS011;8369;48.030;11.598;2022-07-10T07:42:52;6.70;;;4.47;;
16512;SDS011;8369;48.030;11.598;2022-07-10T07:45:18;9.13;;;4.67;;
16512;SDS011;8369;48.030;11.598;2022-07-10T07:47:49;7.27;;;4.77;;
16512;SDS011;8369;48.030;11.598;2022-07-10T07:50:21;7.83;;;5.30;;
16512;SDS011;8369;48.030;11.598;2022-07-10T07:52:48;7.00;;;5.30;;
16512;SDS011;8369;48.030;11.598;2022-07-10T07:55:15;5.67;;;5.07;;
16512;SDS011;8369;48.030;11.598;2022-07-10T07:57:43;6.53;;;5.13;;
16512;SDS011;8369;48.030;11.598;2022-07-10T08:00:10;6.23;;;4.93;;
16512;SDS011;8369;48.030;11.598;2022-07-10T08:02:37;5.37;;;4.83;;
16512;SDS011;8369;48.030;11.598;2022-07-10T08:05:04;6.27;;;5.10;;
16512;SDS011;8369;48.030;11.598;2022-07-10T08:10:04;5.60;;;4.77;;
16512;SDS011;8369;48.030;11.598;2022-07-10T08:12:32;10.10;;;4.83;;
16512;SDS011;8369;48.030;11.598;2022-07-10T08:14:58;5.03;;;4.53;;
16512;SDS011;8369;48.030;11.598;2022-07-10T08:17:24;5.33;;;4.83;;
16512;SDS011;8369;48.030;11.598;2022-07-10T08:19:50;6.17;;;4.67;;
16512;SDS011;8369;48.030;11.598;2022-07-10T08:22:16;5.73;;;4.87;;
16512;SDS011;8369;48.030;11.598;2022-07-10T08:24:41;5.60;;;4.60;;
16512;SDS011;8369;48.030;11.598;2022-07-10T08:27:07;6.70;;;4.47;;
16512;SDS011;8369;48.030;11.598;2022-07-10T08:29:33;4.50;;;4.10;;
16512;SDS011;8369;48.030;11.598;2022-07-10T08:31:59;4.47;;;3.95;;
16512;SDS011;8369;48.030;11.598;2022-07-10T08:34:25;4.80;;;4.15;;
16512;SDS011;8369;48.030;11.598;2022-07-10T08:36:55;4.37;;;3.80;;
16512;SDS011;8369;48.030;11.598;2022-07-10T08:39:21;3.80;;;3.33;;
16512;SDS011;8369;48.030;11.598;2022-07-10T08:41:47;4.55;;;3.20;;
16512;SDS011;8369;48.030;11.598;2022-07-10T08:44:16;3.28;;;2.97;;
16512;SDS011;8369;48.030;11.598;2022-07-10T08:46:43;3.17;;;2.88;;
16512;SDS011;8369;48.030;11.598;2022-07-10T08:49:09;4.63;;;2.93;;
16512;SDS011;8369;48.030;11.598;2022-07-10T08:51:47;4.55;;;3.10;;
16512;SDS011;8369;48.030;11.598;2022-07-10T08:54:25;3.27;;;2.97;;
16512;SDS011;8369;48.030;11.598;2022-07-10T08:56:58;3.20;;;2.90;;
16512;SDS011;8369;48.030;11.598;2022-07-10T08:59:27;3.17;;;2.75;;
16512;SDS011;8369;48.030;11.598;2022-07-10T09:01:54;4.05;;;3.08;;
16512;SDS011;8369;48.030;11.598;2022-07-10T09:04:21;3.10;;;2.80;;
16512;SDS011;8369;48.030;11.598;2022-07-10T09:06:49;3.20;;;2.90;;
16512;SDS011;8369;48.030;11.598;2022-07-10T09:09:16;3.00;;;2.50;;
16512;SDS011;8369;48.030;11.598;2022-07-10T09:11:42;4.38;;;2.72;;
16512;SDS011;8369;48.030;11.598;2022-07-10T09:14:08;4.63;;;2.65;;
16512;SDS011;8369;48.030;11.598;2022-07-10T09:16:38;2.50;;;2.30;;
16512;SDS011;8369;48.030;11.598;2022-07-10T09:19:19;2.85;;;2.53;;
16512;SDS011;8369;48.030;11.598;2022-07-10T09:22:05;3.15;;;2.30;;
16512;SDS011;8369;48.030;11.598;2022-07-10T09:24:36;3.28;;;2.80;;
16512;SDS011;8369;48.030;11.598;2022-07-10T09:27:07;4.97;;;2.30;;
16512;SDS011;8369;48.030;11.598;2022-07-10T09:29:44;2.60;;;2.40;;
16512;SDS011;8369;48.030;11.598;2022-07-10T09:32:11;5.72;;;2.67;;
16512;SDS011;8369;48.030;11.598;2022-07-10T09:37:26;3.45;;;2.78;;
16512;SDS011;8369;48.030;11.598;2022-07-10T09:42:37;3.10;;;2.38;;
16512;SDS011;8369;48.030;11.598;2022-07-10T09:50:26;3.25;;;2.30;;
16512;SDS011;8369;48.030;11.598;2022-07-10T09:52:58;4.40;;;2.63;;
16512;SDS011;8369;48.030;11.598;2022-07-10T09:55:35;4.43;;;2.42;;
16512;SDS011;8369;48.030;11.598;2022-07-10T09:58:05;3.15;;;2.42;;
16512;SDS011;8369;48.030;11.598;2022-07-10T10:00:32;5.45;;;2.70;;
16512;SDS011;8369;48.030;11.598;2022-07-10T10:03:11;2.30;;;2.10;;
16512;SDS011;8369;48.030;11.598;2022-07-10T10:08:27;2.47;;;2.00;;
16512;SDS011;8369;48.030;11.598;2022-07-10T10:10:57;2.20;;;2.00;;
16512;SDS011;8369;48.030;11.598;2022-07-10T10:13:25;3.40;;;2.00;;
16512;SDS011;8369;48.030;11.598;2022-07-10T10:15:58;3.33;;;2.10;;
16512;SDS011;8369;48.030;11.598;2022-07-10T10:18:27;2.40;;;2.03;;
16512;SDS011;8369;48.030;11.598;2022-07-10T10:20:57;3.40;;;2.13;;
16512;SDS011;8369;48.030;11.598;2022-07-10T10:23:24;3.65;;;2.13;;
16512;SDS011;8369;48.030;11.598;2022-07-10T10:25:51;2.05;;;1.92;;
16512;SDS011;8369;48.030;11.598;2022-07-10T10:28:22;4.18;;;2.30;;
16512;SDS011;8369;48.030;11.598;2022-07-10T10:30:51;4.35;;;2.13;;
16512;SDS011;8369;48.030;11.598;2022-07-10T10:36:07;2.40;;;1.83;;
16512;SDS011;8369;48.030;11.598;2022-07-10T10:46:53;2.72;;;2.10;;
16512;SDS011;8369;48.030;11.598;2022-07-10T10:49:51;4.43;;;2.63;;
16512;SDS011;8369;48.030;11.598;2022-07-10T10:52:21;2.17;;;1.95;;
16512;SDS011;8369;48.030;11.598;2022-07-10T11:00:13;3.67;;;1.90;;
16512;SDS011;8369;48.030;11.598;2022-07-10T11:02:40;2.10;;;1.90;;
16512;SDS011;8369;48.030;11.598;2022-07-10T11:07:53;9.50;;;2.20;;
16512;SDS011;8369;48.030;11.598;2022-07-10T11:13:00;2.45;;;1.98;;
16512;SDS011;8369;48.030;11.598;2022-07-10T11:15:28;5.13;;;2.03;;
16512;SDS011;8369;48.030;11.598;2022-07-10T11:17:56;2.67;;;1.88;;
16512;SDS011;8369;48.030;11.598;2022-07-10T11:20:22;3.78;;;2.00;;
16512;SDS011;8369;48.030;11.598;2022-07-10T11:28:25;3.42;;;1.98;;
16512;SDS011;8369;48.030;11.598;2022-07-10T11:31:07;4.35;;;2.15;;
16512;SDS011;8369;48.030;11.598;2022-07-10T11:33:43;3.67;;;1.83;;
16512;SDS011;8369;48.030;11.598;2022-07-10T11:36:13;2.88;;;1.70;;
16512;SDS011;8369;48.030;11.598;2022-07-10T11:38:44;5.65;;;2.25;;
16512;SDS011;8369;48.030;11.598;2022-07-10T11:41:18;2.08;;;1.88;;
16512;SDS011;8369;48.030;11.598;2022-07-10T11:43:50;3.38;;;1.65;;
16512;SDS011;8369;48.030;11.598;2022-07-10T11:46:16;3.50;;;1.85;;
16512;SDS011;8369;48.030;11.598;2022-07-10T11:48:44;2.15;;;1.95;;
16512;SDS011;8369;48.030;11.598;2022-07-10T11:54:14;1.90;;;1.80;;
16512;SDS011;8369;48.030;11.598;2022-07-10T11:56:45;2.53;;;2.20;;
16512;SDS011;8369;48.030;11.598;2022-07-10T11:59:12;2.10;;;1.80;;
16512;SDS011;8369;48.030;11.598;2022-07-10T12:01:49;3.40;;;1.92;;
16512;SDS011;8369;48.030;11.598;2022-07-10T12:04:19;2.58;;;1.90;;
16512;SDS011;8369;48.030;11.598;2022-07-10T12:06:51;2.33;;;1.83;;
16512;SDS011;8369;48.030;11.598;2022-07-10T12:09:22;2.42;;;1.77;;
16512;SDS011;8369;48.030;11.598;2022-07-10T12:12:04;2.28;;;1.73;;
16512;SDS011;8369;48.030;11.598;2022-07-10T12:14:32;3.35;;;1.95;;
16512;SDS011;8369;48.030;11.598;2022-07-10T12:16:58;2.58;;;1.95;;
16512;SDS011;8369;48.030;11.598;2022-07-10T12:19:26;2.67;;;2.00;;
16512;SDS011;8369;48.030;11.598;2022-07-10T12:21:55;4.53;;;1.98;;
16512;SDS011;8369;48.030;11.598;2022-07-10T12:24:23;8.27;;;2.10;;
16512;SDS011;8369;48.030;11.598;2022-07-10T12:26:52;4.03;;;1.90;;
16512;SDS011;8369;48.030;11.598;2022-07-10T12:29:28;1.77;;;1.48;;
16512;SDS011;8369;48.030;11.598;2022-07-10T12:31:55;3.42;;;1.50;;
16512;SDS011;8369;48.030;11.598;2022-07-10T12:34:34;1.35;;;1.27;;
16512;SDS011;8369;48.030;11.598;2022-07-10T12:37:12;2.22;;;1.80;;
16512;SDS011;8369;48.030;11.598;2022-07-10T12:39:48;2.13;;;1.77;;
16512;SDS011;8369;48.030;11.598;2022-07-10T12:44:54;2.55;;;1.70;;
16512;SDS011;8369;48.030;11.598;2022-07-10T12:47:42;1.75;;;1.65;;
16512;SDS011;8369;48.030;11.598;2022-07-10T12:50:16;3.80;;;2.00;;
16512;SDS011;8369;48.030;11.598;2022-07-10T12:52:43;7.20;;;1.83;;
16512;SDS011;8369;48.030;11.598;2022-07-10T12:55:13;1.77;;;1.60;;
16512;SDS011;8369;48.030;11.598;2022-07-10T13:00:12;3.33;;;2.10;;
16512;SDS011;8369;48.030;11.598;2022-07-10T13:02:39;2.45;;;1.65;;
16512;SDS011;8369;48.030;11.598;2022-07-10T13:05:06;3.17;;;1.77;;
16512;SDS011;8369;48.030;11.598;2022-07-10T13:07:32;1.75;;;1.65;;
16512;SDS011;8369;48.030;11.598;2022-07-10T13:10:00;2.00;;;1.80;;
16512;SDS011;8369;48.030;11.598;2022-07-10T13:12:32;2.75;;;1.65;;
16512;SDS011;8369;48.030;11.598;2022-07-10T13:14:59;2.25;;;1.60;;
16512;SDS011;8369;48.030;11.598;2022-07-10T13:17:26;1.80;;;1.50;;
16512;SDS011;8369;48.030;11.598;2022-07-10T13:19:52;1.70;;;1.60;;
16512;SDS011;8369;48.030;11.598;2022-07-10T13:22:18;2.05;;;1.85;;
16512;SDS011;8369;48.030;11.598;2022-07-10T13:24:43;1.63;;;1.52;;
16512;SDS011;8369;48.030;11.598;2022-07-10T13:27:09;3.03;;;1.58;;
16512;SDS011;8369;48.030;11.598;2022-07-10T13:29:35;2.20;;;1.70;;
16512;SDS011;8369;48.030;11.598;2022-07-10T13:32:01;2.17;;;1.70;;
16512;SDS011;8369;48.030;11.598;2022-07-10T13:34:27;2.58;;;2.10;;
16512;SDS011;8369;48.030;11.598;2022-07-10T13:36:53;2.08;;;1.70;;
16512;SDS011;8369;48.030;11.598;2022-07-10T13:39:20;2.20;;;1.63;;
16512;SDS011;8369;48.030;11.598;2022-07-10T13:41:46;2.65;;;1.60;;
16512;SDS011;8369;48.030;11.598;2022-07-10T13:44:12;2.20;;;2.00;;
16512;SDS011;8369;48.030;11.598;2022-07-10T13:46:38;2.00;;;1.80;;
16512;SDS011;8369;48.030;11.598;2022-07-10T13:49:07;2.00;;;1.70;;
16512;SDS011;8369;48.030;11.598;2022-07-10T13:51:33;1.92;;;1.50;;
16512;SDS011;8369;48.030;11.598;2022-07-10T13:53:58;1.50;;;1.40;;
16512;SDS011;8369;48.030;11.598;2022-07-10T13:56:24;6.40;;;1.80;;
16512;SDS011;8369;48.030;11.598;2022-07-10T13:58:50;1.92;;;1.45;;
16512;SDS011;8369;48.030;11.598;2022-07-10T14:01:17;3.08;;;1.80;;
16512;SDS011;8369;48.030;11.598;2022-07-10T14:03:43;1.55;;;1.45;;
16512;SDS011;8369;48.030;11.598;2022-07-10T14:06:09;1.60;;;1.50;;
16512;SDS011;8369;48.030;11.598;2022-07-10T14:08:34;2.47;;;1.80;;
16512;SDS011;8369;48.030;11.598;2022-07-10T14:11:00;1.50;;;1.40;;
16512;SDS011;8369;48.030;11.598;2022-07-10T14:13:27;1.50;;;1.40;;
16512;SDS011;8369;48.030;11.598;2022-07-10T14:15:53;2.38;;;1.60;;
16512;SDS011;8369;48.030;11.598;2022-07-10T14:18:19;1.63;;;1.52;;
16512;SDS011;8369;48.030;11.598;2022-07-10T14:21:02;2.88;;;1.75;;
16512;SDS011;8369;48.030;11.598;2022-07-10T14:23:35;2.53;;;1.75;;
16512;SDS011;8369;48.030;11.598;2022-07-10T14:26:12;2.08;;;1.75;;
16512;SDS011;8369;48.030;11.598;2022-07-10T14:28:38;4.70;;;1.73;;
16512;SDS011;8369;48.030;11.598;2022-07-10T14:31:05;1.60;;;1.50;;
16512;SDS011;8369;48.030;11.598;2022-07-10T14:33:33;2.05;;;1.70;;
16512;SDS011;8369;48.030;11.598;2022-07-10T14:36:00;2.17;;;1.65;;
16512;SDS011;8369;48.030;11.598;2022-07-10T14:38:26;1.83;;;1.50;;
16512;SDS011;8369;48.030;11.598;2022-07-10T14:40:53;1.60;;;1.50;;
16512;SDS011;8369;48.030;11.598;2022-07-10T14:43:20;1.88;;;1.40;;
16512;SDS011;8369;48.030;11.598;2022-07-10T14:45:46;1.40;;;1.30;;
16512;SDS011;8369;48.030;11.598;2022-07-10T14:48:13;1.95;;;1.50;;
16512;SDS011;8369;48.030;11.598;2022-07-10T14:50:39;2.75;;;1.58;;
16512;SDS011;8369;48.030;11.598;2022-07-10T14:53:05;1.67;;;1.58;;
16512;SDS011;8369;48.030;11.598;2022-07-10T14:55:32;2.05;;;1.50;;
16512;SDS011;8369;48.030;11.598;2022-07-10T14:57:58;1.35;;;1.25;;
16512;SDS011;8369;48.030;11.598;2022-07-10T15:00:24;1.50;;;1.40;;
16512;SDS011;8369;48.030;11.598;2022-07-10T15:02:50;5.03;;;1.63;;
16512;SDS011;8369;48.030;11.598;2022-07-10T15:05:16;2.70;;;1.85;;
16512;SDS011;8369;48.030;11.598;2022-07-10T15:07:42;1.98;;;1.52;;
16512;SDS011;8369;48.030;11.598;2022-07-10T15:10:08;2.03;;;1.60;;
16512;SDS011;8369;48.030;11.598;2022-07-10T15:12:35;2.05;;;1.65;;
16512;SDS011;8369;48.030;11.598;2022-07-10T15:15:06;1.33;;;1.23;;
16512;SDS011;8369;48.030;11.598;2022-07-10T15:17:34;1.40;;;1.30;;
16512;SDS011;8369;48.030;11.598;2022-07-10T15:20:00;1.52;;;1.40;;
16512;SDS011;8369;48.030;11.598;2022-07-10T15:22:26;2.42;;;1.42;;
16512;SDS011;8369;48.030;11.598;2022-07-10T15:24:53;3.65;;;1.60;;
16512;SDS011;8369;48.030;11.598;2022-07-10T15:27:19;4.30;;;1.58;;
16512;SDS011;8369;48.030;11.598;2022-07-10T15:29:45;1.75;;;1.52;;
16512;SDS011;8369;48.030;11.598;2022-07-10T15:32:11;5.50;;;1.80;;
16512;SDS011;8369;48.030;11.598;2022-07-10T15:34:37;1.40;;;1.30;;
16512;SDS011;8369;48.030;11.598;2022-07-10T15:37:04;2.53;;;1.40;;
16512;SDS011;8369;48.030;11.598;2022-07-10T15:39:30;1.45;;;1.35;;
16512;SDS011;8369;48.030;11.598;2022-07-10T15:42:07;4.85;;;1.50;;
16512;SDS011;8369;48.030;11.598;2022-07-10T15:44:33;1.40;;;1.30;;
16512;SDS011;8369;48.030;11.598;2022-07-10T15:46:59;1.65;;;1.52;;
16512;SDS011;8369;48.030;11.598;2022-07-10T15:49:26;1.67;;;1.52;;